createdAt,value
2023-08-11T00:01:47.609Z,2.63
2023-08-11T00:04:20.148Z,3.00
2023-08-11T00:09:19.041Z,2.50
2023-08-11T00:11:48.711Z,2.63
2023-08-11T00:14:18.266Z,2.17
2023-08-11T00:16:47.827Z,3.15
2023-08-11T00:19:20.086Z,2.40
2023-08-11T00:21:49.691Z,3.42
2023-08-11T00:24:19.870Z,2.75
2023-08-11T00:26:49.431Z,3.05
2023-08-11T00:29:19.080Z,2.25
2023-08-11T00:31:49.455Z,2.30
2023-08-11T00:34:21.856Z,3.05
2023-08-11T00:36:51.468Z,2.33
2023-08-11T00:39:21.061Z,2.45
2023-08-11T00:41:51.382Z,2.05
2023-08-11T00:44:20.984Z,2.17
2023-08-11T00:46:51.207Z,2.30
2023-08-11T00:49:23.539Z,2.30
2023-08-11T00:51:54.223Z,2.20
2023-08-11T00:54:25.475Z,2.35
2023-08-11T00:56:55.397Z,2.25
2023-08-11T00:59:25.334Z,2.33
2023-08-11T01:01:55.251Z,2.50
2023-08-11T01:04:27.443Z,2.33
2023-08-11T01:07:18.629Z,2.17
2023-08-11T01:09:55.500Z,2.28
2023-08-11T01:12:33.282Z,2.45
2023-08-11T01:15:14.366Z,2.72
2023-08-11T01:17:45.254Z,2.80
2023-08-11T01:20:19.741Z,2.35
2023-08-11T01:22:53.589Z,2.47
2023-08-11T01:25:27.121Z,2.30
2023-08-11T01:27:58.964Z,2.42
2023-08-11T01:30:31.515Z,3.25
2023-08-11T01:33:01.494Z,2.28
2023-08-11T01:35:40.913Z,2.40
2023-08-11T01:38:10.158Z,2.40
2023-08-11T01:40:43.105Z,2.20
2023-08-11T01:43:15.423Z,1.90
2023-08-11T01:45:46.310Z,2.45
2023-08-11T01:48:18.170Z,2.58
2023-08-11T01:50:48.261Z,3.55
2023-08-11T01:53:18.190Z,2.15
2023-08-11T01:55:51.773Z,2.30
2023-08-11T01:58:21.356Z,2.83
2023-08-11T02:00:50.963Z,3.78
2023-08-11T02:03:21.850Z,2.50
2023-08-11T02:05:51.555Z,2.00
2023-08-11T02:08:22.310Z,2.42
2023-08-11T02:10:54.740Z,2.20
2023-08-11T02:13:24.361Z,2.50
2023-08-11T02:15:54.470Z,2.40
2023-08-11T02:18:24.105Z,2.50
2023-08-11T02:20:53.702Z,2.50
2023-08-11T02:23:23.262Z,2.05
2023-08-11T02:25:55.674Z,2.10
2023-08-11T02:28:25.522Z,1.90
2023-08-11T02:30:55.354Z,2.45
2023-08-11T02:33:24.959Z,2.25
2023-08-11T02:35:55.249Z,2.13
2023-08-11T02:38:24.782Z,2.33
2023-08-11T02:40:56.946Z,2.20
2023-08-11T02:43:26.630Z,2.55
2023-08-11T02:45:56.474Z,2.10
2023-08-11T02:48:26.150Z,2.13
2023-08-11T02:50:55.744Z,2.63
2023-08-11T02:53:25.306Z,1.80
2023-08-11T02:55:57.503Z,2.15
2023-08-11T02:58:27.365Z,2.10
2023-08-11T03:00:59.238Z,2.25
2023-08-11T03:03:30.019Z,2.15
2023-08-11T03:05:59.760Z,2.28
2023-08-11T03:08:29.525Z,2.28
2023-08-11T03:11:01.931Z,2.60
2023-08-11T03:13:37.056Z,2.50
2023-08-11T03:16:07.476Z,1.83
2023-08-11T03:18:37.535Z,2.20
2023-08-11T03:21:18.535Z,2.92
2023-08-11T03:23:49.887Z,2.25
2023-08-11T03:26:22.585Z,2.30
2023-08-11T03:28:52.213Z,2.35
2023-08-11T03:31:22.296Z,1.80
2023-08-11T03:36:24.016Z,2.58
2023-08-11T03:38:53.664Z,2.10
2023-08-11T03:41:26.113Z,2.25
2023-08-11T03:43:55.832Z,2.38
2023-08-11T03:46:26.278Z,3.00
2023-08-11T03:48:56.463Z,2.85
2023-08-11T03:51:26.092Z,2.58
2023-08-11T03:53:55.689Z,2.85
2023-08-11T03:56:29.116Z,2.58
2023-08-11T04:01:29.358Z,2.55
2023-08-11T04:03:58.987Z,2.13
2023-08-11T04:06:33.857Z,2.72
2023-08-11T04:09:05.315Z,2.35
2023-08-11T04:11:37.494Z,2.80
2023-08-11T04:14:07.195Z,3.08
2023-08-11T04:16:36.931Z,3.10
2023-08-11T04:19:06.982Z,2.85
2023-08-11T04:21:36.580Z,2.53
2023-08-11T04:24:06.844Z,2.30
2023-08-11T04:26:39.576Z,2.50
2023-08-11T04:29:10.348Z,2.60
2023-08-11T04:31:41.366Z,2.42
2023-08-11T04:34:11.752Z,2.60
2023-08-11T04:36:41.431Z,2.35
2023-08-11T04:39:11.739Z,2.50
2023-08-11T04:41:44.105Z,2.33
2023-08-11T04:44:13.696Z,2.80
2023-08-11T04:46:43.361Z,2.75
2023-08-11T04:49:13.887Z,2.35
2023-08-11T04:51:43.498Z,2.45
2023-08-11T04:54:13.092Z,2.25
2023-08-11T04:56:45.648Z,2.83
2023-08-11T05:01:44.764Z,2.47
2023-08-11T05:04:14.373Z,2.40
2023-08-11T05:06:43.952Z,2.85
2023-08-11T05:09:13.563Z,2.95
2023-08-11T05:11:45.697Z,2.40
2023-08-11T05:14:17.065Z,2.60
2023-08-11T05:16:46.625Z,2.40
2023-08-11T05:19:16.600Z,2.72
2023-08-11T05:21:46.140Z,2.95
2023-08-11T05:24:15.852Z,2.70
2023-08-11T05:26:48.528Z,2.75
2023-08-11T05:29:18.077Z,2.70
2023-08-11T05:31:47.633Z,2.60
2023-08-11T05:34:17.176Z,2.60
2023-08-11T05:36:46.957Z,2.92
2023-08-11T05:39:16.613Z,3.13
2023-08-11T05:41:48.831Z,3.13
2023-08-11T05:44:18.385Z,2.28
2023-08-11T05:46:47.942Z,2.85
2023-08-11T05:49:17.580Z,2.53
2023-08-11T05:51:47.125Z,2.78
2023-08-11T05:54:16.712Z,2.88
2023-08-11T05:56:48.860Z,2.70
2023-08-11T05:59:18.408Z,2.47
2023-08-11T06:01:48.214Z,2.65
2023-08-11T06:04:17.845Z,2.40
2023-08-11T06:06:47.477Z,2.40
2023-08-11T06:09:17.082Z,2.40
2023-08-11T06:11:49.241Z,2.63
2023-08-11T06:14:18.867Z,2.67
2023-08-11T06:16:48.721Z,2.70
2023-08-11T06:19:18.302Z,2.78
2023-08-11T06:21:48.600Z,2.78
2023-08-11T06:24:18.227Z,2.88
2023-08-11T06:26:50.407Z,2.40
2023-08-11T06:29:20.161Z,2.85
2023-08-11T06:31:50.342Z,2.60
2023-08-11T06:34:21.737Z,3.00
2023-08-11T06:36:51.457Z,2.72
2023-08-11T06:39:21.019Z,2.63
2023-08-11T06:41:53.237Z,3.47
2023-08-11T06:44:42.798Z,3.10
2023-08-11T06:47:12.383Z,2.65
2023-08-11T06:49:41.926Z,3.08
2023-08-11T06:52:12.874Z,2.35
2023-08-11T06:54:43.122Z,2.80
2023-08-11T06:57:15.525Z,2.90
2023-08-11T06:59:45.113Z,2.88
2023-08-11T07:02:14.717Z,2.85
2023-08-11T07:04:44.396Z,2.47
2023-08-11T07:07:14.056Z,2.72
2023-08-11T07:09:43.765Z,2.45
2023-08-11T07:12:16.137Z,2.28
2023-08-11T07:14:46.094Z,2.47
2023-08-11T07:17:15.717Z,2.08
2023-08-11T07:19:45.594Z,2.40
2023-08-11T07:22:15.212Z,2.50
2023-08-11T07:24:44.786Z,2.58
2023-08-11T07:27:19.315Z,2.08
2023-08-11T07:29:49.258Z,2.40
2023-08-11T07:32:18.897Z,2.30
2023-08-11T07:34:48.539Z,2.25
2023-08-11T07:37:18.144Z,2.33
2023-08-11T07:39:47.723Z,2.28
2023-08-11T07:42:19.895Z,1.98
2023-08-11T07:44:49.464Z,2.15
2023-08-11T07:47:19.038Z,2.15
2023-08-11T07:49:48.617Z,2.10
2023-08-11T07:52:18.824Z,1.90
2023-08-11T07:54:48.476Z,2.17
2023-08-11T07:57:20.796Z,2.10
2023-08-11T07:59:50.412Z,2.58
2023-08-11T08:02:20.083Z,2.45
2023-08-11T08:04:49.671Z,1.88
2023-08-11T08:07:19.257Z,2.13
2023-08-11T08:09:48.993Z,2.15
2023-08-11T08:12:21.138Z,2.28
2023-08-11T08:14:50.767Z,2.08
2023-08-11T08:17:20.657Z,1.90
2023-08-11T08:19:51.161Z,2.00
2023-08-11T08:22:20.904Z,1.63
2023-08-11T08:24:51.030Z,1.80
2023-08-11T08:27:25.674Z,1.90
2023-08-11T08:29:56.045Z,2.17
2023-08-11T08:32:25.702Z,1.70
2023-08-11T08:34:55.448Z,1.60
2023-08-11T08:37:26.042Z,1.70
2023-08-11T08:39:56.521Z,2.00
2023-08-11T08:42:29.695Z,1.88
2023-08-11T08:45:00.770Z,1.50
2023-08-11T08:47:30.911Z,1.48
2023-08-11T08:50:03.191Z,1.58
2023-08-11T08:52:34.025Z,1.70
2023-08-11T08:55:04.764Z,1.60
2023-08-11T08:57:37.680Z,1.63
2023-08-11T09:00:09.237Z,1.70
2023-08-11T09:02:39.405Z,2.00
2023-08-11T09:05:10.823Z,1.17
2023-08-11T09:07:40.403Z,1.02
2023-08-11T09:10:11.670Z,1.00
2023-08-11T09:12:46.116Z,1.10
2023-08-11T09:15:16.821Z,1.10
2023-08-11T09:17:46.518Z,1.08
2023-08-11T09:20:20.956Z,1.08
2023-08-11T09:22:50.635Z,0.82
2023-08-11T09:25:20.323Z,0.88
2023-08-11T09:27:55.489Z,1.00
2023-08-11T09:30:25.062Z,1.20
2023-08-11T09:32:54.829Z,1.80
2023-08-11T09:35:27.689Z,1.08
2023-08-11T09:37:57.543Z,1.08
2023-08-11T09:40:27.140Z,1.48
2023-08-11T09:43:00.452Z,1.20
2023-08-11T09:45:34.512Z,0.90
2023-08-11T09:48:04.100Z,0.98
2023-08-11T09:50:37.770Z,1.08
2023-08-11T09:53:09.148Z,1.20
2023-08-11T09:55:41.322Z,1.20
2023-08-11T09:58:16.336Z,1.20
2023-08-11T10:00:47.266Z,1.33
2023-08-11T10:03:26.908Z,1.48
2023-08-11T10:05:58.890Z,1.15
2023-08-11T10:08:31.121Z,1.65
2023-08-11T10:11:04.623Z,1.48
2023-08-11T10:13:37.618Z,1.83
2023-08-11T10:16:08.521Z,1.35
2023-08-11T10:18:39.792Z,1.88
2023-08-11T10:21:09.598Z,1.65
2023-08-11T10:23:40.425Z,1.92
2023-08-11T10:26:15.724Z,1.75
2023-08-11T10:28:48.790Z,1.88
2023-08-11T10:31:18.418Z,1.70
2023-08-11T10:33:52.996Z,1.90
2023-08-11T10:36:25.807Z,2.17
2023-08-11T10:39:04.825Z,1.90
2023-08-11T10:41:34.821Z,2.08
2023-08-11T10:44:08.664Z,1.80
2023-08-11T10:46:39.709Z,1.80
2023-08-11T10:49:23.769Z,2.13
2023-08-11T10:51:55.222Z,1.90
2023-08-11T10:54:27.786Z,1.75
2023-08-11T10:56:57.657Z,1.80
2023-08-11T10:59:32.215Z,1.75
2023-08-11T11:02:04.684Z,2.25
2023-08-11T11:07:08.607Z,1.80
2023-08-11T11:09:38.311Z,2.08
2023-08-11T11:12:09.885Z,1.70
2023-08-11T11:14:42.413Z,2.35
2023-08-11T11:19:59.205Z,1.77
2023-08-11T11:22:32.836Z,1.80
2023-08-11T11:25:04.268Z,1.58
2023-08-11T11:27:33.848Z,1.98
2023-08-11T11:30:06.482Z,1.60
2023-08-11T11:32:36.197Z,1.60
2023-08-11T11:35:06.792Z,1.85
2023-08-11T11:37:37.268Z,1.80
2023-08-11T11:40:10.661Z,1.92
2023-08-11T11:42:40.328Z,1.98
2023-08-11T11:45:21.869Z,2.00
2023-08-11T11:47:54.631Z,1.88
2023-08-11T11:50:27.010Z,2.30
2023-08-11T11:52:57.346Z,2.00
2023-08-11T11:55:27.781Z,2.20
2023-08-11T11:57:59.718Z,1.95
2023-08-11T12:00:35.652Z,2.10
2023-08-11T12:05:48.051Z,2.05
2023-08-11T12:08:22.347Z,2.00
2023-08-11T12:10:53.933Z,1.70
2023-08-11T12:13:23.807Z,1.85
2023-08-11T12:15:56.081Z,1.75
2023-08-11T12:18:25.693Z,2.10
2023-08-11T12:20:55.273Z,2.05
2023-08-11T12:23:24.832Z,2.17
2023-08-11T12:25:54.532Z,2.30
2023-08-11T12:28:24.342Z,2.08
2023-08-11T12:30:56.592Z,1.90
2023-08-11T12:33:26.784Z,1.95
2023-08-11T12:35:56.435Z,1.80
2023-08-11T12:38:26.211Z,1.83
2023-08-11T12:40:55.792Z,1.92
2023-08-11T12:43:25.374Z,2.35
2023-08-11T12:45:57.624Z,2.28
2023-08-11T12:48:27.172Z,2.20
2023-08-11T12:50:56.734Z,1.98
2023-08-11T12:53:26.265Z,2.53
2023-08-11T12:55:55.850Z,2.13
2023-08-11T12:58:25.445Z,2.17
2023-08-11T13:00:57.653Z,1.92
2023-08-11T13:03:27.373Z,1.92
2023-08-11T13:05:56.945Z,1.95
2023-08-11T13:08:26.505Z,1.95
2023-08-11T13:10:56.329Z,1.88
2023-08-11T13:13:25.890Z,3.33
2023-08-11T13:15:58.065Z,2.10
2023-08-11T13:18:27.748Z,1.70
2023-08-11T13:20:57.473Z,2.33
2023-08-11T13:23:30.213Z,1.80
2023-08-11T13:26:01.059Z,2.15
2023-08-11T13:28:35.011Z,1.92
2023-08-11T13:31:07.423Z,2.10
2023-08-11T13:36:06.880Z,2.10
2023-08-11T13:38:36.413Z,1.70
2023-08-11T13:43:44.849Z,1.65
2023-08-11T13:46:17.829Z,1.95
2023-08-11T13:48:47.435Z,2.75
2023-08-11T13:51:17.023Z,1.77
2023-08-11T13:53:49.314Z,1.85
2023-08-11T13:56:18.856Z,2.08
2023-08-11T13:58:48.441Z,1.50
2023-08-11T14:01:20.574Z,1.85
2023-08-11T14:03:50.196Z,2.00
2023-08-11T14:06:19.760Z,1.90
2023-08-11T14:08:49.352Z,1.83
2023-08-11T14:11:24.211Z,1.77
2023-08-11T14:13:54.269Z,1.88
2023-08-11T14:16:26.426Z,1.90
2023-08-11T14:18:57.022Z,2.05
2023-08-11T14:21:26.784Z,2.05
2023-08-11T14:23:56.375Z,1.70
2023-08-11T14:26:25.948Z,1.90
2023-08-11T14:28:55.510Z,1.92
2023-08-11T14:31:27.743Z,1.65
2023-08-11T14:33:57.426Z,1.95
2023-08-11T14:36:27.162Z,1.77
2023-08-11T14:38:56.860Z,1.73
2023-08-11T14:41:26.457Z,1.98
2023-08-11T14:43:56.022Z,1.85
2023-08-11T14:46:28.341Z,1.73
2023-08-11T14:51:27.296Z,1.90
2023-08-11T14:53:56.840Z,1.90
2023-08-11T14:56:27.658Z,2.08
2023-08-11T14:58:57.431Z,2.08
2023-08-11T15:01:29.688Z,1.70
2023-08-11T15:06:28.652Z,2.00
2023-08-11T15:08:58.193Z,1.77
2023-08-11T15:11:27.868Z,2.03
2023-08-11T15:13:57.593Z,2.22
2023-08-11T15:16:29.972Z,2.20
2023-08-11T15:18:59.774Z,2.10
2023-08-11T15:21:29.536Z,1.70
2023-08-11T15:23:59.301Z,1.77
2023-08-11T15:26:29.394Z,2.08
2023-08-11T15:29:00.851Z,1.98
2023-08-11T15:31:36.007Z,2.05
2023-08-11T15:34:07.061Z,2.08
2023-08-11T15:36:36.922Z,1.80
2023-08-11T15:39:08.070Z,2.00
2023-08-11T15:41:37.730Z,2.15
2023-08-11T15:44:07.817Z,2.13
2023-08-11T15:46:40.234Z,2.13
2023-08-11T15:49:09.907Z,2.03
2023-08-11T15:51:39.569Z,2.00
2023-08-11T15:54:09.273Z,2.10
2023-08-11T15:56:38.929Z,2.13
2023-08-11T15:59:09.225Z,2.47
2023-08-11T16:01:45.827Z,2.28
2023-08-11T16:04:22.290Z,1.90
2023-08-11T16:06:52.260Z,2.45
2023-08-11T16:09:22.223Z,2.20
2023-08-11T16:11:53.966Z,2.08
2023-08-11T16:17:05.716Z,2.33
2023-08-11T16:19:36.213Z,2.60
2023-08-11T16:22:05.802Z,2.13
2023-08-11T16:24:35.506Z,2.80
2023-08-11T16:27:05.106Z,2.17
2023-08-11T16:29:39.492Z,2.45
2023-08-11T16:32:12.069Z,2.10
2023-08-11T16:34:41.951Z,2.58
2023-08-11T16:37:11.469Z,2.47
2023-08-11T16:39:41.567Z,2.92
2023-08-11T16:42:11.360Z,2.92
2023-08-11T16:44:42.698Z,2.60
2023-08-11T16:47:14.873Z,2.22
2023-08-11T16:49:44.460Z,2.35
2023-08-11T16:52:14.289Z,2.50
2023-08-11T16:54:43.861Z,2.55
2023-08-11T16:57:14.160Z,2.58
2023-08-11T16:59:43.734Z,2.80
2023-08-11T17:02:15.932Z,2.60
2023-08-11T17:07:14.906Z,2.53
2023-08-11T17:09:44.478Z,2.63
2023-08-11T17:12:14.453Z,2.10
2023-08-11T17:14:44.262Z,2.70
2023-08-11T17:17:16.418Z,2.20
2023-08-11T17:19:45.992Z,2.65
2023-08-11T17:22:15.760Z,2.72
2023-08-11T17:24:45.317Z,2.40
2023-08-11T17:27:14.923Z,2.97
2023-08-11T17:29:46.125Z,2.40
2023-08-11T17:32:18.406Z,2.53
2023-08-11T17:37:23.978Z,2.83
2023-08-11T17:39:54.121Z,3.00
2023-08-11T17:42:23.825Z,3.10
2023-08-11T17:44:53.378Z,2.80
2023-08-11T17:47:25.526Z,2.72
2023-08-11T17:49:55.146Z,2.63
2023-08-11T17:52:24.688Z,2.90
2023-08-11T17:54:54.422Z,2.78
2023-08-11T17:57:24.097Z,3.17
2023-08-11T17:59:53.893Z,3.53
2023-08-11T18:02:26.159Z,3.03
2023-08-11T18:07:25.209Z,3.13
2023-08-11T18:09:54.975Z,3.50
2023-08-11T18:12:27.417Z,3.63
2023-08-11T18:14:58.612Z,3.38
2023-08-11T18:17:30.770Z,3.70
2023-08-11T18:20:00.351Z,3.60
2023-08-11T18:22:33.782Z,3.55
2023-08-11T18:25:04.973Z,4.32
2023-08-11T18:27:34.728Z,3.75
2023-08-11T18:30:05.225Z,3.67
2023-08-11T18:32:37.386Z,3.20
2023-08-11T18:35:08.070Z,4.47
2023-08-11T18:37:37.625Z,4.93
2023-08-11T18:40:08.494Z,4.85
2023-08-11T18:42:38.138Z,5.30
2023-08-11T18:45:09.133Z,6.43
2023-08-11T18:47:41.405Z,4.30
2023-08-11T18:52:41.006Z,3.58
2023-08-11T18:55:11.478Z,3.90
2023-08-11T18:57:41.076Z,4.25
2023-08-11T19:00:13.929Z,4.22
2023-08-11T19:02:46.432Z,7.72
2023-08-11T19:05:16.150Z,6.63
2023-08-11T19:07:45.698Z,6.97
2023-08-11T19:10:15.768Z,6.15
2023-08-11T19:12:45.382Z,6.03
2023-08-11T19:15:14.982Z,5.93
2023-08-11T19:17:47.245Z,4.53
2023-08-11T19:22:46.546Z,5.00
2023-08-11T19:25:16.141Z,4.85
2023-08-11T19:27:45.832Z,5.05
2023-08-11T19:30:15.643Z,5.05
2023-08-11T19:32:47.781Z,4.93
2023-08-11T19:35:17.368Z,4.53
2023-08-11T19:37:47.071Z,4.68
2023-08-11T19:40:16.633Z,4.05
2023-08-11T19:42:46.244Z,4.35
2023-08-11T19:45:15.778Z,4.22
2023-08-11T19:47:48.004Z,4.75
2023-08-11T19:52:46.971Z,4.97
2023-08-11T19:55:16.556Z,7.00
2023-08-11T19:57:46.108Z,6.45
2023-08-11T20:00:17.049Z,6.10
2023-08-11T20:02:51.234Z,5.63
2023-08-11T20:05:20.886Z,5.75
2023-08-11T20:07:50.549Z,5.30
2023-08-11T20:10:20.901Z,5.63
2023-08-11T20:12:51.162Z,7.10
2023-08-11T20:15:21.336Z,5.68
2023-08-11T20:17:53.571Z,5.80
2023-08-11T20:20:23.110Z,5.90
2023-08-11T20:22:52.692Z,5.93
2023-08-11T20:25:22.290Z,6.10
2023-08-11T20:27:51.983Z,6.18
2023-08-11T20:30:21.690Z,7.35
2023-08-11T20:32:54.204Z,6.97
2023-08-11T20:35:23.783Z,7.38
2023-08-11T20:37:50.995Z,7.07
2023-08-11T20:40:20.591Z,6.72
2023-08-11T20:42:50.148Z,8.57
2023-08-11T20:45:19.883Z,6.97
2023-08-11T20:47:49.518Z,7.25
2023-08-11T20:50:22.028Z,6.78
2023-08-11T20:52:51.761Z,8.43
2023-08-11T20:55:21.702Z,8.80
2023-08-11T20:57:52.161Z,8.70
2023-08-11T21:00:21.777Z,8.48
2023-08-11T21:02:51.332Z,8.77
2023-08-11T21:05:23.565Z,8.00
2023-08-11T21:07:53.134Z,8.27
2023-08-11T21:10:23.017Z,9.60
2023-08-11T21:12:52.594Z,9.98
2023-08-11T21:15:22.528Z,9.98
2023-08-11T21:17:54.222Z,9.20
2023-08-11T21:20:26.534Z,7.97
2023-08-11T21:22:56.254Z,7.97
2023-08-11T21:25:25.868Z,14.77
2023-08-11T21:27:55.532Z,8.55
2023-08-11T21:30:25.125Z,7.18
2023-08-11T21:32:54.759Z,7.00
2023-08-11T21:35:26.979Z,7.93
2023-08-11T21:37:56.676Z,10.32
2023-08-11T21:40:26.357Z,8.30
2023-08-11T21:42:55.981Z,7.65
2023-08-11T21:45:25.654Z,6.68
2023-08-11T21:47:55.415Z,7.13
2023-08-11T21:50:27.694Z,8.23
2023-08-11T21:52:59.777Z,7.13
2023-08-11T21:55:33.602Z,7.40
2023-08-11T21:58:04.566Z,6.85
2023-08-11T22:00:37.077Z,6.50
2023-08-11T22:03:07.291Z,6.70
2023-08-11T22:05:39.538Z,5.60
2023-08-11T22:08:09.380Z,5.28
2023-08-11T22:10:39.412Z,6.57
2023-08-11T22:13:09.412Z,6.20
2023-08-11T22:15:39.049Z,6.00
2023-08-11T22:18:08.819Z,5.68
2023-08-11T22:20:41.108Z,5.85
2023-08-11T22:23:10.789Z,6.10
2023-08-11T22:25:40.406Z,2.70
2023-08-11T22:28:10.013Z,5.30
2023-08-11T22:30:40.048Z,5.82
2023-08-11T22:33:11.318Z,2.83
2023-08-11T22:35:45.059Z,2.40
2023-08-11T22:38:15.254Z,5.30
2023-08-11T22:40:44.927Z,5.53
2023-08-11T22:43:14.762Z,5.28
2023-08-11T22:45:44.500Z,5.38
2023-08-11T22:48:14.161Z,5.65
2023-08-11T22:50:46.361Z,5.53
2023-08-11T22:53:15.932Z,5.68
2023-08-11T22:55:45.495Z,5.60
2023-08-11T22:58:15.309Z,5.28
2023-08-11T23:00:45.022Z,4.60
2023-08-11T23:03:14.639Z,4.68
2023-08-11T23:05:46.998Z,5.68
2023-08-11T23:08:16.664Z,4.68
2023-08-11T23:10:46.288Z,4.82
2023-08-11T23:13:16.353Z,4.80
2023-08-11T23:15:45.981Z,4.75
2023-08-11T23:18:15.594Z,4.18
2023-08-11T23:20:47.708Z,4.50
2023-08-11T23:23:17.334Z,3.80
2023-08-11T23:25:46.889Z,4.30
2023-08-11T23:28:16.503Z,4.20
2023-08-11T23:30:46.059Z,4.47
2023-08-11T23:33:16.490Z,3.70
2023-08-11T23:35:48.732Z,4.05
2023-08-11T23:38:18.887Z,3.95
2023-08-11T23:40:48.473Z,4.20
2023-08-11T23:43:18.759Z,4.32
2023-08-11T23:45:48.380Z,4.00
2023-08-11T23:48:18.487Z,3.50
2023-08-11T23:50:50.838Z,4.93
2023-08-11T23:53:20.404Z,4.20
2023-08-11T23:55:50.253Z,3.92
2023-08-11T23:58:19.875Z,4.15
